createdAt,value
2022-12-06T00:02:10.577Z,8.75
2022-12-06T00:04:37.100Z,9.50
2022-12-06T00:07:03.663Z,9.38
2022-12-06T00:09:32.092Z,12.52
2022-12-06T00:11:58.695Z,9.07
2022-12-06T00:14:25.686Z,10.82
2022-12-06T00:16:52.487Z,11.15
2022-12-06T00:19:20.093Z,11.00
2022-12-06T00:21:47.407Z,10.05
2022-12-06T00:24:15.682Z,11.00
2022-12-06T00:26:43.496Z,8.20
2022-12-06T00:29:14.622Z,8.43
2022-12-06T00:31:41.287Z,9.23
2022-12-06T00:34:07.751Z,8.95
2022-12-06T00:36:35.294Z,7.45
2022-12-06T00:39:02.901Z,8.75
2022-12-06T00:41:29.613Z,8.30
2022-12-06T00:43:56.071Z,8.10
2022-12-06T00:46:23.897Z,8.27
2022-12-06T00:48:50.944Z,7.55
2022-12-06T00:51:18.000Z,7.53
2022-12-06T00:53:45.065Z,7.78
2022-12-06T00:56:11.612Z,8.75
2022-12-06T00:58:38.106Z,7.50
2022-12-06T01:01:11.596Z,7.18
2022-12-06T01:03:38.400Z,7.82
2022-12-06T01:06:06.308Z,7.82
2022-12-06T01:08:32.898Z,7.88
2022-12-06T01:10:59.574Z,7.47
2022-12-06T01:13:25.988Z,7.65
2022-12-06T01:15:54.227Z,7.07
2022-12-06T01:18:21.362Z,7.25
2022-12-06T01:20:47.855Z,7.68
2022-12-06T01:23:14.648Z,7.75
2022-12-06T01:25:49.435Z,7.15
2022-12-06T01:28:15.901Z,7.10
2022-12-06T01:30:42.419Z,7.22
2022-12-06T01:33:08.951Z,6.90
2022-12-06T01:35:39.236Z,7.30
2022-12-06T01:38:06.378Z,7.60
2022-12-06T01:40:39.855Z,8.13
2022-12-06T01:43:07.011Z,8.65
2022-12-06T01:45:33.515Z,7.25
2022-12-06T01:48:00.101Z,7.60
2022-12-06T01:50:29.352Z,7.50
2022-12-06T01:52:55.771Z,7.65
2022-12-06T01:55:23.104Z,7.13
2022-12-06T01:57:51.420Z,6.95
2022-12-06T02:00:18.091Z,6.70
2022-12-06T02:02:44.641Z,8.00
2022-12-06T02:05:11.643Z,6.80
2022-12-06T02:07:38.678Z,7.53
2022-12-06T02:10:05.593Z,7.70
2022-12-06T02:12:32.067Z,7.05
2022-12-06T02:14:59.709Z,7.70
2022-12-06T02:17:47.467Z,7.43
2022-12-06T02:20:19.159Z,7.50
2022-12-06T02:22:45.562Z,6.93
2022-12-06T02:25:34.055Z,7.22
2022-12-06T02:28:00.787Z,7.10
2022-12-06T02:30:46.128Z,7.38
2022-12-06T02:33:15.443Z,6.80
2022-12-06T02:35:47.452Z,8.80
2022-12-06T02:38:16.480Z,7.43
2022-12-06T02:40:46.041Z,8.02
2022-12-06T02:43:14.829Z,7.03
2022-12-06T02:45:44.484Z,7.47
2022-12-06T02:48:12.745Z,7.45
2022-12-06T02:50:45.345Z,7.35
2022-12-06T02:53:13.684Z,7.25
2022-12-06T02:55:41.325Z,7.68
2022-12-06T02:58:07.823Z,6.97
2022-12-06T03:00:36.628Z,7.40
2022-12-06T03:03:05.874Z,7.45
2022-12-06T03:05:36.051Z,7.80
2022-12-06T03:08:05.225Z,7.53
2022-12-06T03:10:41.081Z,6.97
2022-12-06T03:13:16.921Z,6.90
2022-12-06T03:15:47.428Z,7.47
2022-12-06T03:18:34.170Z,7.57
2022-12-06T03:21:06.630Z,7.15
2022-12-06T03:23:36.926Z,7.40
2022-12-06T03:26:05.429Z,7.88
2022-12-06T03:28:32.103Z,7.45
2022-12-06T03:31:01.324Z,8.32
2022-12-06T03:33:28.756Z,7.43
2022-12-06T03:35:56.518Z,7.20
2022-12-06T03:38:29.498Z,7.65
2022-12-06T03:40:57.203Z,8.00
2022-12-06T03:43:23.685Z,6.78
2022-12-06T03:45:56.816Z,7.45
2022-12-06T03:48:27.267Z,7.18
2022-12-06T03:51:04.713Z,7.38
2022-12-06T03:53:31.666Z,6.78
2022-12-06T03:55:58.146Z,7.65
2022-12-06T03:58:24.641Z,7.40
2022-12-06T04:00:51.121Z,6.75
2022-12-06T04:03:17.690Z,8.70
2022-12-06T04:05:44.263Z,7.38
2022-12-06T04:08:10.763Z,7.30
2022-12-06T04:10:37.261Z,7.47
2022-12-06T04:13:05.926Z,7.38
2022-12-06T04:15:34.350Z,7.80
2022-12-06T04:18:16.192Z,8.13
2022-12-06T04:21:04.619Z,7.80
2022-12-06T04:23:32.238Z,7.07
2022-12-06T04:25:58.676Z,8.40
2022-12-06T04:28:43.610Z,8.45
2022-12-06T04:31:29.077Z,7.75
2022-12-06T04:34:13.872Z,7.78
2022-12-06T04:36:58.793Z,7.32
2022-12-06T04:39:25.403Z,8.77
2022-12-06T04:42:30.473Z,9.52
2022-12-06T04:44:56.906Z,9.13
2022-12-06T04:47:23.692Z,8.57
2022-12-06T04:49:50.513Z,7.88
2022-12-06T04:52:17.260Z,8.55
2022-12-06T04:54:43.671Z,8.88
2022-12-06T04:57:13.767Z,8.45
2022-12-06T04:59:41.520Z,7.88
2022-12-06T05:02:10.144Z,8.20
2022-12-06T05:04:36.629Z,9.05
2022-12-06T05:07:03.284Z,9.50
2022-12-06T05:09:29.742Z,8.88
2022-12-06T05:11:56.192Z,8.18
2022-12-06T05:14:22.892Z,8.93
2022-12-06T05:16:49.422Z,9.00
2022-12-06T05:19:16.296Z,7.85
2022-12-06T05:21:42.758Z,9.27
2022-12-06T05:24:09.211Z,8.30
2022-12-06T05:26:35.632Z,9.02
2022-12-06T05:29:02.134Z,8.52
2022-12-06T05:31:28.686Z,8.70
2022-12-06T05:33:55.201Z,9.13
2022-12-06T05:36:27.095Z,8.50
2022-12-06T05:41:20.836Z,8.85
2022-12-06T05:43:47.473Z,9.50
2022-12-06T05:46:14.068Z,11.02
2022-12-06T05:48:40.633Z,10.30
2022-12-06T05:51:07.084Z,9.75
2022-12-06T05:53:33.568Z,9.77
2022-12-06T05:56:10.488Z,10.07
2022-12-06T05:58:37.275Z,9.77
2022-12-06T06:01:04.958Z,10.93
2022-12-06T06:03:31.516Z,10.13
2022-12-06T06:05:59.227Z,11.65
2022-12-06T06:08:26.348Z,10.45
2022-12-06T06:10:52.746Z,10.60
2022-12-06T06:13:19.256Z,9.98
2022-12-06T06:15:45.791Z,11.18
2022-12-06T06:18:12.234Z,11.38
2022-12-06T06:20:38.736Z,10.98
2022-12-06T06:23:05.181Z,10.13
2022-12-06T06:25:31.646Z,9.70
2022-12-06T06:27:58.035Z,11.65
2022-12-06T06:30:24.476Z,11.00
2022-12-06T06:32:50.959Z,10.38
2022-12-06T06:35:17.554Z,11.45
2022-12-06T06:37:44.012Z,11.63
2022-12-06T06:40:11.457Z,10.82
2022-12-06T06:42:38.243Z,11.20
2022-12-06T06:45:04.914Z,12.38
2022-12-06T06:47:31.397Z,12.02
2022-12-06T06:49:57.963Z,11.77
2022-12-06T06:52:24.525Z,12.55
2022-12-06T06:54:51.004Z,11.73
2022-12-06T06:57:18.493Z,12.07
2022-12-06T06:59:45.686Z,12.82
2022-12-06T07:02:13.127Z,12.05
2022-12-06T07:04:39.627Z,11.73
2022-12-06T07:07:06.054Z,12.93
2022-12-06T07:09:32.645Z,11.90
2022-12-06T07:11:59.076Z,13.82
2022-12-06T07:14:25.506Z,13.10
2022-12-06T07:16:52.106Z,12.25
2022-12-06T07:19:18.725Z,12.20
2022-12-06T07:21:45.121Z,12.73
2022-12-06T07:24:11.547Z,11.18
2022-12-06T07:26:38.043Z,12.73
2022-12-06T07:29:04.570Z,12.48
2022-12-06T07:31:31.260Z,13.77
2022-12-06T07:33:58.833Z,14.23
2022-12-06T07:36:26.131Z,13.30
2022-12-06T07:38:53.962Z,13.38
2022-12-06T07:41:40.184Z,14.13
2022-12-06T07:44:25.013Z,12.10
2022-12-06T07:46:51.411Z,13.20
2022-12-06T07:49:18.409Z,13.70
2022-12-06T15:18:10.408Z,26.85
2022-12-06T15:20:37.019Z,28.15
2022-12-06T15:23:19.603Z,27.88
2022-12-06T15:25:46.050Z,28.42
2022-12-06T15:28:16.959Z,27.73
2022-12-06T15:30:46.228Z,31.73
2022-12-06T15:33:23.822Z,30.90
2022-12-06T15:35:50.915Z,30.25
2022-12-06T15:38:18.718Z,34.03
2022-12-06T15:40:47.471Z,34.55
2022-12-06T15:43:21.539Z,33.50
2022-12-06T15:45:47.945Z,34.42
2022-12-06T15:48:15.144Z,34.85
2022-12-06T15:50:41.591Z,36.45
2022-12-06T15:53:11.134Z,36.83
2022-12-06T15:55:37.545Z,36.38
2022-12-06T15:58:10.815Z,35.15
2022-12-06T16:00:37.286Z,31.80
2022-12-06T16:03:03.846Z,30.33
2022-12-06T16:05:31.058Z,31.70
2022-12-06T16:07:58.337Z,28.80
2022-12-06T16:10:42.466Z,33.10
2022-12-06T16:13:22.282Z,30.95
2022-12-06T16:15:52.187Z,32.25
2022-12-06T16:18:20.465Z,30.67
2022-12-06T16:20:46.957Z,32.38
2022-12-06T16:24:12.524Z,31.90
2022-12-06T16:26:35.254Z,30.95
2022-12-06T16:29:06.504Z,28.55
2022-12-06T16:31:36.488Z,28.08
2022-12-06T16:34:05.870Z,27.20
2022-12-06T16:36:32.690Z,26.83
2022-12-06T16:39:00.737Z,28.75
2022-12-06T16:41:36.474Z,30.27
2022-12-06T16:44:03.721Z,31.45
2022-12-06T16:46:34.146Z,38.17
2022-12-06T16:49:16.128Z,35.22
2022-12-06T16:51:48.521Z,36.25
2022-12-06T16:54:16.206Z,35.15
2022-12-06T16:56:42.692Z,44.47
2022-12-06T16:59:15.469Z,41.47
2022-12-06T17:01:49.285Z,34.92
2022-12-06T23:06:11.577Z,39.45
2022-12-06T23:08:38.717Z,38.67
2022-12-06T23:11:07.025Z,39.58
2022-12-06T23:13:33.726Z,39.85
2022-12-06T23:16:01.809Z,39.78
2022-12-06T23:18:29.938Z,38.10
2022-12-06T23:21:03.024Z,41.13
2022-12-06T23:23:29.755Z,39.63
2022-12-06T23:25:56.223Z,40.15
2022-12-06T23:28:24.082Z,42.33
2022-12-06T23:30:50.519Z,40.20
2022-12-06T23:33:22.518Z,38.17
2022-12-06T23:35:49.328Z,37.03
2022-12-06T23:38:15.737Z,39.65
2022-12-06T23:40:42.134Z,39.30
2022-12-06T23:43:08.558Z,37.03
2022-12-06T23:45:35.100Z,38.45
2022-12-06T23:48:01.651Z,39.88
2022-12-06T23:50:28.137Z,38.50
2022-12-06T23:52:54.577Z,36.75
2022-12-06T23:55:21.026Z,38.33
2022-12-06T23:57:47.466Z,37.33
